sensor_id;sensor_type;location;lat;lon;timestamp;temperature;humidity
1103;DHT22;538;42.654;23.376;2022-12-05T00:01:25;6.00;83.30
1103;DHT22;538;42.654;23.376;2022-12-05T00:03:56;5.90;83.90
1103;DHT22;538;42.654;23.376;2022-12-05T00:06:25;5.90;83.20
1103;DHT22;538;42.654;23.376;2022-12-05T00:08:53;6.00;83.40
1103;DHT22;538;42.654;23.376;2022-12-05T00:11:23;5.90;84.90
1103;DHT22;538;42.654;23.376;2022-12-05T00:13:52;6.10;84.30
1103;DHT22;538;42.654;23.376;2022-12-05T00:16:21;5.80;84.20
1103;DHT22;538;42.654;23.376;2022-12-05T00:18:49;6.10;85.20
1103;DHT22;538;42.654;23.376;2022-12-05T00:21:20;5.80;85.50
1103;DHT22;538;42.654;23.376;2022-12-05T00:23:48;6.00;84.90
1103;DHT22;538;42.654;23.376;2022-12-05T00:26:15;5.70;83.00
1103;DHT22;538;42.654;23.376;2022-12-05T00:28:43;5.80;83.60
1103;DHT22;538;42.654;23.376;2022-12-05T00:31:11;5.70;85.80
1103;DHT22;538;42.654;23.376;2022-12-05T00:33:42;5.60;87.80
1103;DHT22;538;42.654;23.376;2022-12-05T00:36:13;5.70;89.50
1103;DHT22;538;42.654;23.376;2022-12-05T00:38:42;5.70;89.40
1103;DHT22;538;42.654;23.376;2022-12-05T00:41:15;5.60;89.20
1103;DHT22;538;42.654;23.376;2022-12-05T00:43:43;5.60;88.00
1103;DHT22;538;42.654;23.376;2022-12-05T00:46:13;5.80;87.40
1103;DHT22;538;42.654;23.376;2022-12-05T00:48:43;5.70;85.00
1103;DHT22;538;42.654;23.376;2022-12-05T00:51:13;5.90;84.60
1103;DHT22;538;42.654;23.376;2022-12-05T00:53:42;5.80;84.60
1103;DHT22;538;42.654;23.376;2022-12-05T00:56:12;5.60;85.80
1103;DHT22;538;42.654;23.376;2022-12-05T00:58:40;5.60;86.80
1103;DHT22;538;42.654;23.376;2022-12-05T01:01:09;5.70;87.30
1103;DHT22;538;42.654;23.376;2022-12-05T01:03:37;5.90;85.80
1103;DHT22;538;42.654;23.376;2022-12-05T01:06:05;6.00;85.50
1103;DHT22;538;42.654;23.376;2022-12-05T01:08:32;5.80;83.70
1103;DHT22;538;42.654;23.376;2022-12-05T01:11:02;5.80;84.30
1103;DHT22;538;42.654;23.376;2022-12-05T01:13:30;5.60;84.30
1103;DHT22;538;42.654;23.376;2022-12-05T01:15:58;5.70;84.20
1103;DHT22;538;42.654;23.376;2022-12-05T01:18:25;5.90;83.90
1103;DHT22;538;42.654;23.376;2022-12-05T01:20:53;5.90;83.20
1103;DHT22;538;42.654;23.376;2022-12-05T01:23:20;5.90;83.20
1103;DHT22;538;42.654;23.376;2022-12-05T01:25:48;6.10;83.90
1103;DHT22;538;42.654;23.376;2022-12-05T01:28:17;6.00;84.30
1103;DHT22;538;42.654;23.376;2022-12-05T01:30:46;5.80;83.80
1103;DHT22;538;42.654;23.376;2022-12-05T01:33:14;6.10;84.60
1103;DHT22;538;42.654;23.376;2022-12-05T01:35:41;6.00;85.50
1103;DHT22;538;42.654;23.376;2022-12-05T01:38:10;5.80;85.30
1103;DHT22;538;42.654;23.376;2022-12-05T01:40:38;5.80;86.60
1103;DHT22;538;42.654;23.376;2022-12-05T01:43:08;5.90;87.50
1103;DHT22;538;42.654;23.376;2022-12-05T01:45:40;5.80;88.60
1103;DHT22;538;42.654;23.376;2022-12-05T01:48:10;5.80;90.30
1103;DHT22;538;42.654;23.376;2022-12-05T01:50:40;5.70;90.40
1103;DHT22;538;42.654;23.376;2022-12-05T01:53:07;5.60;90.80
1103;DHT22;538;42.654;23.376;2022-12-05T01:55:38;5.90;90.70
1103;DHT22;538;42.654;23.376;2022-12-05T01:58:07;5.80;90.10
1103;DHT22;538;42.654;23.376;2022-12-05T02:00:35;5.80;90.30
1103;DHT22;538;42.654;23.376;2022-12-05T02:03:09;5.70;90.10
1103;DHT22;538;42.654;23.376;2022-12-05T02:05:39;5.80;89.50
1103;DHT22;538;42.654;23.376;2022-12-05T02:08:08;5.90;88.70
1103;DHT22;538;42.654;23.376;2022-12-05T02:10:40;5.90;88.50
1103;DHT22;538;42.654;23.376;2022-12-05T02:13:17;5.90;88.90
1103;DHT22;538;42.654;23.376;2022-12-05T02:15:55;5.70;88.00
1103;DHT22;538;42.654;23.376;2022-12-05T02:18:35;6.00;87.80
1103;DHT22;538;42.654;23.376;2022-12-05T02:21:58;5.90;87.70
1103;DHT22;538;42.654;23.376;2022-12-05T02:25:01;6.00;87.70
1103;DHT22;538;42.654;23.376;2022-12-05T02:30:53;5.80;89.00
1103;DHT22;538;42.654;23.376;2022-12-05T02:33:26;6.00;89.70
1103;DHT22;538;42.654;23.376;2022-12-05T02:36:02;6.10;86.40
1103;DHT22;538;42.654;23.376;2022-12-05T02:38:37;6.10;86.30
1103;DHT22;538;42.654;23.376;2022-12-05T02:41:13;6.30;86.60
1103;DHT22;538;42.654;23.376;2022-12-05T02:43:46;6.30;85.80
1103;DHT22;538;42.654;23.376;2022-12-05T02:46:20;6.40;85.80
1103;DHT22;538;42.654;23.376;2022-12-05T02:48:52;6.20;86.10
1103;DHT22;538;42.654;23.376;2022-12-05T02:51:23;6.20;85.60
1103;DHT22;538;42.654;23.376;2022-12-05T02:53:53;6.30;85.80
1103;DHT22;538;42.654;23.376;2022-12-05T02:56:23;6.20;85.10
1103;DHT22;538;42.654;23.376;2022-12-05T02:58:53;6.40;83.70
1103;DHT22;538;42.654;23.376;2022-12-05T03:01:24;6.30;83.80
1103;DHT22;538;42.654;23.376;2022-12-05T03:03:53;6.30;83.00
1103;DHT22;538;42.654;23.376;2022-12-05T03:06:26;6.40;82.60
1103;DHT22;538;42.654;23.376;2022-12-05T03:08:56;6.00;81.50
1103;DHT22;538;42.654;23.376;2022-12-05T03:11:26;6.30;82.40
1103;DHT22;538;42.654;23.376;2022-12-05T03:13:57;6.40;83.00
1103;DHT22;538;42.654;23.376;2022-12-05T03:16:30;6.20;83.40
1103;DHT22;538;42.654;23.376;2022-12-05T03:19:02;6.30;83.30
1103;DHT22;538;42.654;23.376;2022-12-05T03:21:34;6.50;82.70
1103;DHT22;538;42.654;23.376;2022-12-05T03:24:07;6.30;82.30
1103;DHT22;538;42.654;23.376;2022-12-05T03:26:43;6.30;81.90
1103;DHT22;538;42.654;23.376;2022-12-05T03:29:21;6.50;82.40
1103;DHT22;538;42.654;23.376;2022-12-05T03:32:00;6.50;82.00
1103;DHT22;538;42.654;23.376;2022-12-05T03:34:41;6.20;81.10
1103;DHT22;538;42.654;23.376;2022-12-05T03:37:12;6.30;81.80
1103;DHT22;538;42.654;23.376;2022-12-05T03:39:44;6.20;80.90
1103;DHT22;538;42.654;23.376;2022-12-05T03:42:17;6.30;81.30
1103;DHT22;538;42.654;23.376;2022-12-05T03:44:51;6.30;81.90
1103;DHT22;538;42.654;23.376;2022-12-05T03:47:26;6.30;82.50
1103;DHT22;538;42.654;23.376;2022-12-05T03:49:58;6.30;83.50
1103;DHT22;538;42.654;23.376;2022-12-05T03:52:30;6.30;82.80
1103;DHT22;538;42.654;23.376;2022-12-05T03:55:01;6.30;81.20
1103;DHT22;538;42.654;23.376;2022-12-05T03:57:32;6.50;80.50
1103;DHT22;538;42.654;23.376;2022-12-05T04:00:03;6.30;78.90
1103;DHT22;538;42.654;23.376;2022-12-05T04:02:36;6.40;79.50
1103;DHT22;538;42.654;23.376;2022-12-05T04:05:15;6.40;78.40
1103;DHT22;538;42.654;23.376;2022-12-05T04:07:47;4.40;77.80
1103;DHT22;538;42.654;23.376;2022-12-05T04:10:18;6.40;80.10
1103;DHT22;538;42.654;23.376;2022-12-05T04:12:48;6.40;81.10
1103;DHT22;538;42.654;23.376;2022-12-05T04:15:20;6.40;80.50
1103;DHT22;538;42.654;23.376;2022-12-05T04:17:55;6.40;79.50
1103;DHT22;538;42.654;23.376;2022-12-05T04:20:25;6.50;78.40
1103;DHT22;538;42.654;23.376;2022-12-05T04:23:10;6.40;79.80
1103;DHT22;538;42.654;23.376;2022-12-05T04:25:49;6.30;80.70
1103;DHT22;538;42.654;23.376;2022-12-05T04:28:24;6.30;81.00
1103;DHT22;538;42.654;23.376;2022-12-05T04:31:01;6.10;81.50
1103;DHT22;538;42.654;23.376;2022-12-05T04:33:35;6.30;80.90
1103;DHT22;538;42.654;23.376;2022-12-05T04:36:10;6.10;82.70
1103;DHT22;538;42.654;23.376;2022-12-05T04:38:42;6.30;83.10
1103;DHT22;538;42.654;23.376;2022-12-05T04:41:16;6.20;83.40
1103;DHT22;538;42.654;23.376;2022-12-05T04:43:46;6.40;83.20
1103;DHT22;538;42.654;23.376;2022-12-05T04:46:15;6.40;83.50
1103;DHT22;538;42.654;23.376;2022-12-05T04:48:49;6.20;81.30
1103;DHT22;538;42.654;23.376;2022-12-05T04:51:22;6.10;82.80
1103;DHT22;538;42.654;23.376;2022-12-05T04:54:01;6.10;82.50
1103;DHT22;538;42.654;23.376;2022-12-05T04:56:31;6.40;84.30
1103;DHT22;538;42.654;23.376;2022-12-05T04:59:00;6.30;83.70
1103;DHT22;538;42.654;23.376;2022-12-05T05:01:32;6.30;84.00
1103;DHT22;538;42.654;23.376;2022-12-05T05:04:05;6.20;84.00
1103;DHT22;538;42.654;23.376;2022-12-05T05:06:36;6.60;84.90
1103;DHT22;538;42.654;23.376;2022-12-05T05:09:03;6.30;85.00
1103;DHT22;538;42.654;23.376;2022-12-05T05:11:32;6.20;82.20
1103;DHT22;538;42.654;23.376;2022-12-05T05:14:00;6.70;82.50
1103;DHT22;538;42.654;23.376;2022-12-05T05:16:29;6.60;81.00
1103;DHT22;538;42.654;23.376;2022-12-05T05:18:56;7.10;80.00
1103;DHT22;538;42.654;23.376;2022-12-05T05:21:27;6.50;78.30
1103;DHT22;538;42.654;23.376;2022-12-05T05:23:54;6.50;78.00
1103;DHT22;538;42.654;23.376;2022-12-05T05:26:22;6.60;77.40
1103;DHT22;538;42.654;23.376;2022-12-05T05:28:50;6.70;77.70
1103;DHT22;538;42.654;23.376;2022-12-05T05:31:19;6.50;75.70
1103;DHT22;538;42.654;23.376;2022-12-05T05:33:47;6.50;75.80
1103;DHT22;538;42.654;23.376;2022-12-05T05:36:17;6.40;77.90
1103;DHT22;538;42.654;23.376;2022-12-05T05:38:46;6.50;79.80
1103;DHT22;538;42.654;23.376;2022-12-05T05:41:16;6.50;79.00
1103;DHT22;538;42.654;23.376;2022-12-05T05:43:44;6.60;78.40
1103;DHT22;538;42.654;23.376;2022-12-05T05:46:12;6.60;77.10
1103;DHT22;538;42.654;23.376;2022-12-05T05:48:39;6.60;77.30
1103;DHT22;538;42.654;23.376;2022-12-05T05:51:09;6.70;77.80
1103;DHT22;538;42.654;23.376;2022-12-05T05:53:36;6.70;77.30
1103;DHT22;538;42.654;23.376;2022-12-05T05:56:07;6.50;78.00
1103;DHT22;538;42.654;23.376;2022-12-05T05:58:35;6.60;78.80
1103;DHT22;538;42.654;23.376;2022-12-05T06:01:03;6.70;78.30
1103;DHT22;538;42.654;23.376;2022-12-05T06:03:31;6.80;76.80
1103;DHT22;538;42.654;23.376;2022-12-05T06:05:58;6.60;76.00
1103;DHT22;538;42.654;23.376;2022-12-05T06:08:28;6.80;76.60
1103;DHT22;538;42.654;23.376;2022-12-05T06:10:55;6.90;74.30
1103;DHT22;538;42.654;23.376;2022-12-05T06:13:23;6.90;75.10
1103;DHT22;538;42.654;23.376;2022-12-05T06:15:51;6.70;74.10
1103;DHT22;538;42.654;23.376;2022-12-05T06:18:18;6.90;73.90
1103;DHT22;538;42.654;23.376;2022-12-05T06:20:51;6.90;74.00
1103;DHT22;538;42.654;23.376;2022-12-05T06:23:19;6.70;74.40
1103;DHT22;538;42.654;23.376;2022-12-05T06:25:47;6.60;76.10
1103;DHT22;538;42.654;23.376;2022-12-05T06:28:15;6.90;75.60
1103;DHT22;538;42.654;23.376;2022-12-05T06:30:44;6.90;75.60
1103;DHT22;538;42.654;23.376;2022-12-05T06:33:12;6.90;75.90
1103;DHT22;538;42.654;23.376;2022-12-05T06:35:39;6.70;77.50
1103;DHT22;538;42.654;23.376;2022-12-05T06:38:07;6.90;79.40
1103;DHT22;538;42.654;23.376;2022-12-05T06:40:39;6.90;80.00
1103;DHT22;538;42.654;23.376;2022-12-05T06:43:06;7.00;77.80
1103;DHT22;538;42.654;23.376;2022-12-05T06:45:33;6.90;76.20
1103;DHT22;538;42.654;23.376;2022-12-05T06:48:02;6.90;75.80
1103;DHT22;538;42.654;23.376;2022-12-05T06:50:29;6.90;76.90
1103;DHT22;538;42.654;23.376;2022-12-05T06:52:56;6.90;71.90
1103;DHT22;538;42.654;23.376;2022-12-05T06:55:24;7.00;71.20
1103;DHT22;538;42.654;23.376;2022-12-05T06:57:51;7.00;69.60
1103;DHT22;538;42.654;23.376;2022-12-05T07:00:19;6.90;70.40
1103;DHT22;538;42.654;23.376;2022-12-05T07:03:04;7.10;71.80
1103;DHT22;538;42.654;23.376;2022-12-05T07:05:32;7.20;70.70
1103;DHT22;538;42.654;23.376;2022-12-05T07:07:59;7.00;71.50
1103;DHT22;538;42.654;23.376;2022-12-05T07:10:27;7.00;71.80
1103;DHT22;538;42.654;23.376;2022-12-05T07:12:54;6.90;71.20
1103;DHT22;538;42.654;23.376;2022-12-05T07:15:22;7.10;71.80
1103;DHT22;538;42.654;23.376;2022-12-05T07:17:49;7.10;74.30
1103;DHT22;538;42.654;23.376;2022-12-05T07:20:18;7.20;73.40
1103;DHT22;538;42.654;23.376;2022-12-05T07:22:45;7.00;72.50
1103;DHT22;538;42.654;23.376;2022-12-05T07:25:13;7.00;73.40
1103;DHT22;538;42.654;23.376;2022-12-05T07:27:40;7.00;73.00
1103;DHT22;538;42.654;23.376;2022-12-05T07:30:08;7.10;73.40
1103;DHT22;538;42.654;23.376;2022-12-05T07:32:35;7.00;73.30
1103;DHT22;538;42.654;23.376;2022-12-05T07:35:02;7.10;73.90
1103;DHT22;538;42.654;23.376;2022-12-05T07:37:31;7.30;73.40
1103;DHT22;538;42.654;23.376;2022-12-05T07:39:59;7.20;71.80
1103;DHT22;538;42.654;23.376;2022-12-05T07:42:28;7.30;69.70
1103;DHT22;538;42.654;23.376;2022-12-05T07:44:55;7.10;68.40
1103;DHT22;538;42.654;23.376;2022-12-05T07:47:22;7.20;67.00
1103;DHT22;538;42.654;23.376;2022-12-05T07:49:49;6.90;66.30
1103;DHT22;538;42.654;23.376;2022-12-05T07:52:16;7.40;67.50
1103;DHT22;538;42.654;23.376;2022-12-05T07:54:44;7.20;67.60
1103;DHT22;538;42.654;23.376;2022-12-05T07:57:12;7.20;67.80
1103;DHT22;538;42.654;23.376;2022-12-05T07:59:43;7.50;65.30
1103;DHT22;538;42.654;23.376;2022-12-05T08:02:13;7.60;62.80
1103;DHT22;538;42.654;23.376;2022-12-05T08:04:40;7.60;63.40
1103;DHT22;538;42.654;23.376;2022-12-05T08:07:09;7.50;62.70
1103;DHT22;538;42.654;23.376;2022-12-05T08:09:36;7.40;63.70
1103;DHT22;538;42.654;23.376;2022-12-05T08:12:05;7.20;63.30
1103;DHT22;538;42.654;23.376;2022-12-05T08:14:33;7.50;64.00
1103;DHT22;538;42.654;23.376;2022-12-05T08:17:00;7.60;64.50
1103;DHT22;538;42.654;23.376;2022-12-05T08:19:29;7.70;65.40
1103;DHT22;538;42.654;23.376;2022-12-05T08:21:57;7.70;65.10
1103;DHT22;538;42.654;23.376;2022-12-05T08:24:24;7.90;59.00
1103;DHT22;538;42.654;23.376;2022-12-05T08:26:51;7.80;58.00
1103;DHT22;538;42.654;23.376;2022-12-05T08:29:20;7.90;58.70
1103;DHT22;538;42.654;23.376;2022-12-05T08:31:49;8.00;58.40
1103;DHT22;538;42.654;23.376;2022-12-05T08:34:18;7.90;53.30
1103;DHT22;538;42.654;23.376;2022-12-05T08:39:15;7.80;50.70
1103;DHT22;538;42.654;23.376;2022-12-05T08:41:42;8.00;51.50
1103;DHT22;538;42.654;23.376;2022-12-05T08:44:11;7.90;46.00
1103;DHT22;538;42.654;23.376;2022-12-05T08:46:43;8.10;46.10
1103;DHT22;538;42.654;23.376;2022-12-05T08:49:10;7.70;45.90
1103;DHT22;538;42.654;23.376;2022-12-05T08:51:39;7.80;46.20
1103;DHT22;538;42.654;23.376;2022-12-05T08:54:07;10.00;51.20
1103;DHT22;538;42.654;23.376;2022-12-05T08:56:34;7.80;50.90
1103;DHT22;538;42.654;23.376;2022-12-05T08:59:03;8.00;51.20
1103;DHT22;538;42.654;23.376;2022-12-05T09:01:31;8.10;50.80
1103;DHT22;538;42.654;23.376;2022-12-05T09:04:00;8.00;51.50
1103;DHT22;538;42.654;23.376;2022-12-05T09:06:29;8.00;49.90
1103;DHT22;538;42.654;23.376;2022-12-05T09:08:59;7.70;50.10
1103;DHT22;538;42.654;23.376;2022-12-05T09:11:29;7.80;50.70
1103;DHT22;538;42.654;23.376;2022-12-05T09:13:58;7.60;53.00
1103;DHT22;538;42.654;23.376;2022-12-05T09:16:28;7.70;52.80
1103;DHT22;538;42.654;23.376;2022-12-05T09:18:56;8.00;54.50
1103;DHT22;538;42.654;23.376;2022-12-05T09:21:27;7.80;53.20
1103;DHT22;538;42.654;23.376;2022-12-05T09:23:55;8.00;53.00
1103;DHT22;538;42.654;23.376;2022-12-05T09:26:25;8.00;52.10
1103;DHT22;538;42.654;23.376;2022-12-05T09:28:53;8.60;53.00
1103;DHT22;538;42.654;23.376;2022-12-05T09:31:21;7.90;53.30
1103;DHT22;538;42.654;23.376;2022-12-05T09:33:50;7.90;52.80
1103;DHT22;538;42.654;23.376;2022-12-05T09:36:20;8.20;52.00
1103;DHT22;538;42.654;23.376;2022-12-05T09:38:49;8.00;50.80
1103;DHT22;538;42.654;23.376;2022-12-05T09:41:31;8.30;49.80
1103;DHT22;538;42.654;23.376;2022-12-05T09:44:26;8.10;50.30
1103;DHT22;538;42.654;23.376;2022-12-05T09:47:01;8.20;49.80
1103;DHT22;538;42.654;23.376;2022-12-05T09:49:30;8.10;49.60
1103;DHT22;538;42.654;23.376;2022-12-05T09:51:59;8.50;46.90
1103;DHT22;538;42.654;23.376;2022-12-05T09:54:28;8.10;46.90
1103;DHT22;538;42.654;23.376;2022-12-05T09:56:57;8.20;45.50
1103;DHT22;538;42.654;23.376;2022-12-05T09:59:24;8.20;45.90
1103;DHT22;538;42.654;23.376;2022-12-05T10:01:56;8.30;44.70
1103;DHT22;538;42.654;23.376;2022-12-05T10:04:32;8.10;43.70
1103;DHT22;538;42.654;23.376;2022-12-05T10:07:11;8.10;44.00
1103;DHT22;538;42.654;23.376;2022-12-05T10:09:54;8.30;44.00
1103;DHT22;538;42.654;23.376;2022-12-05T10:12:40;8.30;44.70
1103;DHT22;538;42.654;23.376;2022-12-05T10:15:13;8.50;44.50
1103;DHT22;538;42.654;23.376;2022-12-05T10:17:45;8.60;44.80
1103;DHT22;538;42.654;23.376;2022-12-05T10:20:18;8.60;43.00
1103;DHT22;538;42.654;23.376;2022-12-05T10:22:51;8.70;43.30
1103;DHT22;538;42.654;23.376;2022-12-05T10:25:26;8.60;41.70
1103;DHT22;538;42.654;23.376;2022-12-05T10:27:55;8.60;41.80
1103;DHT22;538;42.654;23.376;2022-12-05T10:30:25;8.60;41.80
1103;DHT22;538;42.654;23.376;2022-12-05T10:32:55;8.60;43.10
1103;DHT22;538;42.654;23.376;2022-12-05T10:35:24;8.50;44.10
1103;DHT22;538;42.654;23.376;2022-12-05T10:37:58;8.50;44.60
1103;DHT22;538;42.654;23.376;2022-12-05T10:40:32;8.40;46.60
1103;DHT22;538;42.654;23.376;2022-12-05T10:43:00;8.30;47.10
1103;DHT22;538;42.654;23.376;2022-12-05T10:45:27;8.40;46.20
1103;DHT22;538;42.654;23.376;2022-12-05T10:47:56;8.30;46.20
1103;DHT22;538;42.654;23.376;2022-12-05T10:50:27;8.30;47.00
1103;DHT22;538;42.654;23.376;2022-12-05T10:52:56;8.50;46.20
1103;DHT22;538;42.654;23.376;2022-12-05T10:55:30;8.60;46.70
1103;DHT22;538;42.654;23.376;2022-12-05T10:58:10;8.40;47.10
1103;DHT22;538;42.654;23.376;2022-12-05T11:00:39;8.40;47.50
1103;DHT22;538;42.654;23.376;2022-12-05T11:03:23;8.30;47.60
1103;DHT22;538;42.654;23.376;2022-12-05T11:05:51;8.30;48.50
1103;DHT22;538;42.654;23.376;2022-12-05T11:08:23;8.60;49.20
1103;DHT22;538;42.654;23.376;2022-12-05T11:11:00;8.40;48.50
1103;DHT22;538;42.654;23.376;2022-12-05T11:13:28;8.40;49.30
1103;DHT22;538;42.654;23.376;2022-12-05T11:15:55;8.30;48.90
1103;DHT22;538;42.654;23.376;2022-12-05T11:18:28;8.10;50.40
1103;DHT22;538;42.654;23.376;2022-12-05T11:21:08;8.20;52.70
1103;DHT22;538;42.654;23.376;2022-12-05T11:23:36;8.20;53.20
1103;DHT22;538;42.654;23.376;2022-12-05T11:26:16;8.30;50.00
1103;DHT22;538;42.654;23.376;2022-12-05T11:28:44;8.30;50.40
1103;DHT22;538;42.654;23.376;2022-12-05T11:31:25;8.20;50.90
1103;DHT22;538;42.654;23.376;2022-12-05T11:34:15;8.30;51.90
1103;DHT22;538;42.654;23.376;2022-12-05T11:36:49;8.20;51.20
1103;DHT22;538;42.654;23.376;2022-12-05T11:39:17;8.20;51.60
1103;DHT22;538;42.654;23.376;2022-12-05T11:45:03;8.20;50.40
1103;DHT22;538;42.654;23.376;2022-12-05T11:47:40;8.20;50.80
1103;DHT22;538;42.654;23.376;2022-12-05T11:50:30;8.20;52.10
1103;DHT22;538;42.654;23.376;2022-12-05T11:53:12;8.40;51.40
1103;DHT22;538;42.654;23.376;2022-12-05T11:55:45;8.20;51.50
1103;DHT22;538;42.654;23.376;2022-12-05T11:58:41;8.20;52.80
1103;DHT22;538;42.654;23.376;2022-12-05T12:01:18;8.30;53.10
1103;DHT22;538;42.654;23.376;2022-12-05T12:04:21;8.30;53.60
1103;DHT22;538;42.654;23.376;2022-12-05T12:06:59;8.20;50.20
1103;DHT22;538;42.654;23.376;2022-12-05T12:09:41;8.20;50.70
1103;DHT22;538;42.654;23.376;2022-12-05T12:12:17;8.20;51.50
1103;DHT22;538;42.654;23.376;2022-12-05T12:15:00;8.30;51.90
1103;DHT22;538;42.654;23.376;2022-12-05T12:17:40;8.10;51.90
1103;DHT22;538;42.654;23.376;2022-12-05T12:20:43;8.10;52.50
1103;DHT22;538;42.654;23.376;2022-12-05T12:23:29;8.00;52.90
1103;DHT22;538;42.654;23.376;2022-12-05T12:26:07;7.90;54.70
1103;DHT22;538;42.654;23.376;2022-12-05T12:28:42;7.80;55.40
1103;DHT22;538;42.654;23.376;2022-12-05T12:34:32;7.90;57.00
1103;DHT22;538;42.654;23.376;2022-12-05T12:37:12;8.10;56.30
1103;DHT22;538;42.654;23.376;2022-12-05T12:39:49;8.00;57.50
1103;DHT22;538;42.654;23.376;2022-12-05T12:42:22;8.20;55.00
1103;DHT22;538;42.654;23.376;2022-12-05T12:47:53;8.10;55.30
1103;DHT22;538;42.654;23.376;2022-12-05T12:50:30;7.70;56.50
1103;DHT22;538;42.654;23.376;2022-12-05T12:53:37;7.80;57.40
1103;DHT22;538;42.654;23.376;2022-12-05T12:56:18;7.60;57.80
1103;DHT22;538;42.654;23.376;2022-12-05T12:58:52;7.40;59.80
1103;DHT22;538;42.654;23.376;2022-12-05T13:01:30;7.50;60.90
1103;DHT22;538;42.654;23.376;2022-12-05T13:04:06;7.50;62.00
1103;DHT22;538;42.654;23.376;2022-12-05T13:06:40;7.50;63.60
1103;DHT22;538;42.654;23.376;2022-12-05T13:09:15;7.70;63.30
1103;DHT22;538;42.654;23.376;2022-12-05T13:11:45;7.50;63.60
1103;DHT22;538;42.654;23.376;2022-12-05T13:14:20;7.30;64.10
1103;DHT22;538;42.654;23.376;2022-12-05T13:16:52;8.70;66.10
1103;DHT22;538;42.654;23.376;2022-12-05T13:19:30;7.40;64.30
1103;DHT22;538;42.654;23.376;2022-12-05T13:22:04;7.40;63.80
1103;DHT22;538;42.654;23.376;2022-12-05T13:24:33;7.30;63.90
1103;DHT22;538;42.654;23.376;2022-12-05T13:27:07;7.40;63.70
1103;DHT22;538;42.654;23.376;2022-12-05T13:29:40;7.40;63.80
1103;DHT22;538;42.654;23.376;2022-12-05T13:32:27;7.30;64.90
1103;DHT22;538;42.654;23.376;2022-12-05T13:35:04;7.70;66.00
1103;DHT22;538;42.654;23.376;2022-12-05T13:37:36;7.20;66.40
1103;DHT22;538;42.654;23.376;2022-12-05T13:40:31;7.30;68.90
1103;DHT22;538;42.654;23.376;2022-12-05T13:43:18;7.30;69.50
1103;DHT22;538;42.654;23.376;2022-12-05T13:46:03;7.20;70.00
1103;DHT22;538;42.654;23.376;2022-12-05T13:48:33;7.20;68.30
1103;DHT22;538;42.654;23.376;2022-12-05T13:51:07;7.30;68.80
1103;DHT22;538;42.654;23.376;2022-12-05T13:53:37;7.00;68.00
1103;DHT22;538;42.654;23.376;2022-12-05T13:56:23;7.20;68.60
1103;DHT22;538;42.654;23.376;2022-12-05T13:58:53;7.30;68.90
1103;DHT22;538;42.654;23.376;2022-12-05T14:04:50;7.40;69.50
1103;DHT22;538;42.654;23.376;2022-12-05T14:07:39;7.20;68.40
1103;DHT22;538;42.654;23.376;2022-12-05T14:10:10;7.40;68.70
1103;DHT22;538;42.654;23.376;2022-12-05T14:13:00;7.40;68.70
1103;DHT22;538;42.654;23.376;2022-12-05T14:15:30;7.30;68.70
1103;DHT22;538;42.654;23.376;2022-12-05T14:18:10;7.40;68.00
1103;DHT22;538;42.654;23.376;2022-12-05T14:20:58;7.40;68.70
1103;DHT22;538;42.654;23.376;2022-12-05T14:23:54;7.50;66.40
1103;DHT22;538;42.654;23.376;2022-12-05T14:26:43;7.30;66.50
1103;DHT22;538;42.654;23.376;2022-12-05T14:29:25;7.30;67.30
1103;DHT22;538;42.654;23.376;2022-12-05T14:32:04;7.40;70.40
1103;DHT22;538;42.654;23.376;2022-12-05T14:34:48;7.30;70.30
1103;DHT22;538;42.654;23.376;2022-12-05T14:37:25;7.30;69.40
1103;DHT22;538;42.654;23.376;2022-12-05T14:39:56;7.40;70.90
1103;DHT22;538;42.654;23.376;2022-12-05T14:42:32;7.50;68.90
1103;DHT22;538;42.654;23.376;2022-12-05T14:45:16;7.30;69.40
1103;DHT22;538;42.654;23.376;2022-12-05T14:47:51;7.50;68.10
1103;DHT22;538;42.654;23.376;2022-12-05T14:50:34;7.60;67.50
1103;DHT22;538;42.654;23.376;2022-12-05T14:53:32;7.40;67.90
1103;DHT22;538;42.654;23.376;2022-12-05T14:56:13;7.40;68.80
1103;DHT22;538;42.654;23.376;2022-12-05T14:58:46;7.50;68.70
1103;DHT22;538;42.654;23.376;2022-12-05T15:01:18;7.50;68.10
1103;DHT22;538;42.654;23.376;2022-12-05T15:04:03;7.40;67.80
1103;DHT22;538;42.654;23.376;2022-12-05T15:06:32;7.50;69.20
1103;DHT22;538;42.654;23.376;2022-12-05T15:09:05;7.40;69.50
1103;DHT22;538;42.654;23.376;2022-12-05T15:11:39;7.50;69.90
1103;DHT22;538;42.654;23.376;2022-12-05T15:14:16;7.40;71.60
1103;DHT22;538;42.654;23.376;2022-12-05T15:16:53;7.40;71.20
1103;DHT22;538;42.654;23.376;2022-12-05T15:19:24;7.10;71.30
1103;DHT22;538;42.654;23.376;2022-12-05T15:21:57;7.30;72.20
1103;DHT22;538;42.654;23.376;2022-12-05T15:24:27;7.30;74.20
1103;DHT22;538;42.654;23.376;2022-12-05T15:27:04;7.40;73.20
1103;DHT22;538;42.654;23.376;2022-12-05T15:29:32;7.40;72.10
1103;DHT22;538;42.654;23.376;2022-12-05T15:32:02;7.40;71.70
1103;DHT22;538;42.654;23.376;2022-12-05T15:34:35;7.40;72.10
1103;DHT22;538;42.654;23.376;2022-12-05T15:37:12;7.50;72.10
1103;DHT22;538;42.654;23.376;2022-12-05T15:39:52;7.30;70.80
1103;DHT22;538;42.654;23.376;2022-12-05T15:42:22;7.50;71.30
1103;DHT22;538;42.654;23.376;2022-12-05T15:44:51;7.50;72.30
1103;DHT22;538;42.654;23.376;2022-12-05T15:47:22;7.60;72.60
1103;DHT22;538;42.654;23.376;2022-12-05T15:49:59;7.80;73.50
1103;DHT22;538;42.654;23.376;2022-12-05T15:52:32;7.50;72.80
1103;DHT22;538;42.654;23.376;2022-12-05T15:55:05;6.70;72.60
1103;DHT22;538;42.654;23.376;2022-12-05T15:57:40;7.40;74.20
1103;DHT22;538;42.654;23.376;2022-12-05T16:00:14;7.40;75.40
1103;DHT22;538;42.654;23.376;2022-12-05T16:02:46;7.40;76.20
1103;DHT22;538;42.654;23.376;2022-12-05T16:05:20;7.40;76.10
1103;DHT22;538;42.654;23.376;2022-12-05T16:07:49;7.40;77.40
1103;DHT22;538;42.654;23.376;2022-12-05T16:10:18;7.40;78.40
1103;DHT22;538;42.654;23.376;2022-12-05T16:12:49;7.50;78.30
1103;DHT22;538;42.654;23.376;2022-12-05T16:15:22;8.80;80.50
1103;DHT22;538;42.654;23.376;2022-12-05T16:17:54;7.40;80.20
1103;DHT22;538;42.654;23.376;2022-12-05T16:20:26;7.40;81.00
1103;DHT22;538;42.654;23.376;2022-12-05T16:22:57;7.40;81.20
1103;DHT22;538;42.654;23.376;2022-12-05T16:25:33;7.40;82.30
1103;DHT22;538;42.654;23.376;2022-12-05T16:28:14;7.30;84.20
1103;DHT22;538;42.654;23.376;2022-12-05T16:30:53;10.20;86.40
1103;DHT22;538;42.654;23.376;2022-12-05T16:33:21;7.30;85.00
1103;DHT22;538;42.654;23.376;2022-12-05T16:35:49;7.40;85.70
1103;DHT22;538;42.654;23.376;2022-12-05T16:38:19;7.50;85.90
1103;DHT22;538;42.654;23.376;2022-12-05T16:40:55;7.50;84.30
1103;DHT22;538;42.654;23.376;2022-12-05T16:43:27;5.90;83.30
1103;DHT22;538;42.654;23.376;2022-12-05T16:46:40;7.20;83.20
1103;DHT22;538;42.654;23.376;2022-12-05T16:49:17;7.30;83.70
1103;DHT22;538;42.654;23.376;2022-12-05T16:51:53;7.30;84.20
1103;DHT22;538;42.654;23.376;2022-12-05T16:54:21;7.40;82.80
1103;DHT22;538;42.654;23.376;2022-12-05T16:56:49;7.30;81.20
1103;DHT22;538;42.654;23.376;2022-12-05T16:59:22;7.30;80.70
1103;DHT22;538;42.654;23.376;2022-12-05T17:01:49;7.40;80.60
1103;DHT22;538;42.654;23.376;2022-12-05T17:04:17;7.50;81.20
1103;DHT22;538;42.654;23.376;2022-12-05T17:06:45;7.30;80.50
1103;DHT22;538;42.654;23.376;2022-12-05T17:09:12;6.80;80.50
1103;DHT22;538;42.654;23.376;2022-12-05T17:11:41;7.30;81.50